createdAt,value
2018-02-23T00:00:30.620Z,13.20
2018-02-23T00:02:56.847Z,13.87
2018-02-23T00:05:23.030Z,14.27
2018-02-23T00:07:49.194Z,15.27
2018-02-23T00:10:15.405Z,14.10
2018-02-23T00:12:41.558Z,13.30
2018-02-23T00:15:07.748Z,13.17
2018-02-23T00:17:33.936Z,12.17
2018-02-23T00:20:00.109Z,13.03
2018-02-23T00:22:38.544Z,13.63
2018-02-23T00:25:04.739Z,13.53
2018-02-23T00:27:30.894Z,14.07
2018-02-23T00:29:57.137Z,13.53
2018-02-23T00:32:23.290Z,13.47
2018-02-23T00:34:49.491Z,12.13
2018-02-23T00:37:15.684Z,12.77
2018-02-23T00:39:41.847Z,14.20
2018-02-23T00:42:08.011Z,13.70
2018-02-23T00:44:34.237Z,17.63
2018-02-23T00:47:00.402Z,14.33
2018-02-23T00:49:26.525Z,13.70
2018-02-23T00:51:52.706Z,13.97
2018-02-23T00:54:18.926Z,13.87
2018-02-23T00:56:45.206Z,13.10
2018-02-23T00:59:11.467Z,13.80
2018-02-23T01:01:37.701Z,13.40
2018-02-23T01:04:03.868Z,12.97
2018-02-23T01:06:30.080Z,14.53
2018-02-23T01:08:56.301Z,13.23
2018-02-23T01:11:22.507Z,11.93
2018-02-23T01:13:48.697Z,14.43
2018-02-23T01:16:14.930Z,13.47
2018-02-23T01:18:41.084Z,12.10
2018-02-23T01:21:07.241Z,14.43
2018-02-23T01:23:33.455Z,13.40
2018-02-23T01:25:59.680Z,13.07
2018-02-23T01:28:25.938Z,11.93
2018-02-23T01:30:52.107Z,12.40
2018-02-23T01:33:18.315Z,13.90
2018-02-23T01:35:44.546Z,14.80
2018-02-23T01:38:10.708Z,13.97
2018-02-23T01:40:36.846Z,12.50
2018-02-23T01:43:03.072Z,13.97
2018-02-23T01:45:29.296Z,12.37
2018-02-23T01:47:55.457Z,13.03
2018-02-23T01:50:21.635Z,14.10
2018-02-23T01:52:47.840Z,13.50
2018-02-23T01:55:14.069Z,15.13
2018-02-23T01:57:40.291Z,15.93
2018-02-23T02:00:06.545Z,12.80
2018-02-23T02:02:32.679Z,14.57
2018-02-23T02:04:58.918Z,13.43
2018-02-23T02:07:25.046Z,15.47
2018-02-23T02:09:51.210Z,13.33
2018-02-23T02:12:17.388Z,13.73
2018-02-23T02:14:43.650Z,13.47
2018-02-23T02:17:09.812Z,14.77
2018-02-23T02:19:36.012Z,15.13
2018-02-23T02:22:02.256Z,14.73
2018-02-23T02:24:28.425Z,15.37
2018-02-23T02:26:54.640Z,15.17
2018-02-23T02:29:27.781Z,14.00
2018-02-23T02:31:53.935Z,13.67
2018-02-23T02:34:20.140Z,14.67
2018-02-23T02:36:46.363Z,12.87
2018-02-23T02:39:12.511Z,15.30
2018-02-23T02:41:38.706Z,14.77
2018-02-23T02:44:04.883Z,15.33
2018-02-23T02:46:31.090Z,16.37
2018-02-23T02:48:57.380Z,16.20
2018-02-23T02:51:23.519Z,16.17
2018-02-23T02:53:49.692Z,16.73
2018-02-23T02:56:15.914Z,14.83
2018-02-23T02:58:42.112Z,16.90
2018-02-23T03:01:08.278Z,17.37
2018-02-23T03:03:34.416Z,17.37
2018-02-23T03:06:00.645Z,18.20
2018-02-23T03:08:26.798Z,16.67
2018-02-23T03:10:52.940Z,16.50
2018-02-23T03:13:19.117Z,17.33
2018-02-23T03:15:45.365Z,19.83
2018-02-23T03:18:11.511Z,17.87
2018-02-23T03:20:37.638Z,17.37
2018-02-23T03:23:03.804Z,17.30
2018-02-23T03:25:30.050Z,18.40
2018-02-23T03:27:56.200Z,20.13
2018-02-23T03:30:22.396Z,19.23
2018-02-23T03:32:48.603Z,17.40
2018-02-23T03:35:14.798Z,18.03
2018-02-23T03:37:40.944Z,18.73
2018-02-23T03:40:07.226Z,18.93
2018-02-23T03:42:33.343Z,19.03
2018-02-23T03:44:59.791Z,19.57
2018-02-23T03:47:26.031Z,18.63
2018-02-23T03:49:52.179Z,18.10
2018-02-23T03:52:18.333Z,20.57
2018-02-23T03:54:44.517Z,17.60
2018-02-23T03:57:10.748Z,18.13
2018-02-23T03:59:36.937Z,19.27
2018-02-23T04:02:03.082Z,18.73
2018-02-23T04:04:29.276Z,16.87
2018-02-23T04:06:55.493Z,18.17
2018-02-23T04:09:21.625Z,17.90
2018-02-23T04:11:47.790Z,19.67
2018-02-23T04:14:14.007Z,19.47
2018-02-23T04:16:40.215Z,19.30
2018-02-23T04:19:06.358Z,18.93
2018-02-23T04:21:32.523Z,18.77
2018-02-23T04:23:58.718Z,18.43
2018-02-23T04:26:24.901Z,17.83
2018-02-23T04:28:51.093Z,21.53
2018-02-23T04:31:24.112Z,19.80
2018-02-23T04:33:50.306Z,18.73
2018-02-23T04:36:16.558Z,19.70
2018-02-23T04:38:42.693Z,20.77
2018-02-23T04:41:08.847Z,19.97
2018-02-23T04:43:35.053Z,18.73
2018-02-23T04:46:01.277Z,16.70
2018-02-23T04:48:27.421Z,18.33
2018-02-23T04:50:53.550Z,20.53
2018-02-23T04:53:19.720Z,21.27
2018-02-23T04:55:45.909Z,20.90
2018-02-23T04:58:12.133Z,19.20
2018-02-23T05:00:38.322Z,18.93
2018-02-23T05:03:04.460Z,20.90
2018-02-23T05:05:30.707Z,25.20
2018-02-23T05:07:56.906Z,22.53
2018-02-23T05:10:23.064Z,20.47
2018-02-23T05:12:49.225Z,22.90
2018-02-23T05:15:15.378Z,20.53
2018-02-23T05:17:41.619Z,22.93
2018-02-23T05:20:07.812Z,22.23
2018-02-23T05:22:33.945Z,21.90
2018-02-23T05:25:00.124Z,22.87
2018-02-23T05:27:26.319Z,22.63
2018-02-23T05:29:52.537Z,23.27
2018-02-23T05:32:19.097Z,21.60
2018-02-23T05:34:45.316Z,22.53
2018-02-23T05:37:11.501Z,22.37
2018-02-23T05:39:37.756Z,22.80
2018-02-23T05:42:03.915Z,24.47
2018-02-23T05:44:30.096Z,23.07
2018-02-23T05:46:56.320Z,18.00
2018-02-23T05:49:22.536Z,22.10
2018-02-23T05:51:48.710Z,22.17
2018-02-23T05:54:14.884Z,20.60
2018-02-23T05:56:41.088Z,23.53
2018-02-23T05:59:07.243Z,21.57
2018-02-23T06:01:33.385Z,23.23
2018-02-23T06:03:59.563Z,17.37
2018-02-23T06:06:25.775Z,22.97
2018-02-23T06:08:51.915Z,17.43
2018-02-23T06:11:18.039Z,23.83
2018-02-23T06:13:44.216Z,25.67
2018-02-23T06:16:16.616Z,21.73
2018-02-23T06:18:48.928Z,23.03
2018-02-23T06:21:15.149Z,23.53
2018-02-23T06:23:41.340Z,25.70
2018-02-23T06:26:07.588Z,22.13
2018-02-23T06:28:33.755Z,22.37
2018-02-23T06:30:59.904Z,22.23
2018-02-23T06:33:26.086Z,22.20
2018-02-23T06:35:52.289Z,21.60
2018-02-23T06:38:18.469Z,24.27
2018-02-23T06:40:44.667Z,25.00
2018-02-23T06:43:10.863Z,21.63
2018-02-23T06:45:37.061Z,17.83
2018-02-23T06:48:03.193Z,23.90
2018-02-23T06:50:29.375Z,23.87
2018-02-23T06:52:55.515Z,21.93
2018-02-23T06:55:21.676Z,19.87
2018-02-23T06:57:48.926Z,23.57
2018-02-23T07:00:15.102Z,23.77
2018-02-23T07:02:41.346Z,23.50
2018-02-23T07:05:07.512Z,24.90
2018-02-23T07:07:33.746Z,22.60
2018-02-23T07:09:59.891Z,24.57
2018-02-23T07:12:26.077Z,22.57
2018-02-23T07:14:52.208Z,22.97
2018-02-23T07:17:18.420Z,22.00
2018-02-23T07:19:44.724Z,20.40
2018-02-23T07:22:10.852Z,21.13
2018-02-23T07:24:37.012Z,22.57
2018-02-23T07:27:03.249Z,22.23
2018-02-23T07:29:29.400Z,25.03
2018-02-23T07:31:55.524Z,22.63
2018-02-23T07:34:21.753Z,23.47
2018-02-23T07:36:48.084Z,23.50
2018-02-23T07:39:14.344Z,22.57
2018-02-23T07:41:40.540Z,21.53
2018-02-23T07:44:06.731Z,20.70
2018-02-23T07:46:32.973Z,20.77
2018-02-23T07:48:59.133Z,22.47
2018-02-23T07:51:25.358Z,20.17
2018-02-23T07:53:51.535Z,21.10
2018-02-23T07:56:17.981Z,19.57
2018-02-23T07:58:44.246Z,20.37
2018-02-23T08:01:10.501Z,17.97
2018-02-23T08:03:36.744Z,13.93
2018-02-23T08:06:03.010Z,20.17
2018-02-23T08:08:29.190Z,19.00
2018-02-23T08:10:55.340Z,18.57
2018-02-23T08:13:21.568Z,19.03
2018-02-23T08:15:47.762Z,18.73
2018-02-23T08:18:13.968Z,15.90
2018-02-23T08:20:40.128Z,17.30
2018-02-23T08:23:06.282Z,18.53
2018-02-23T08:25:32.426Z,19.50
2018-02-23T08:27:58.660Z,15.37
2018-02-23T08:30:24.885Z,17.37
2018-02-23T08:32:51.090Z,16.93
2018-02-23T08:35:17.256Z,18.03
2018-02-23T08:37:43.442Z,18.30
2018-02-23T08:40:09.599Z,16.27
2018-02-23T08:42:35.792Z,15.27
2018-02-23T08:45:01.979Z,16.67
2018-02-23T08:47:28.166Z,17.60
2018-02-23T08:49:54.312Z,20.27
2018-02-23T08:52:20.486Z,16.30
2018-02-23T08:54:46.682Z,16.50
2018-02-23T08:57:12.904Z,18.40
2018-02-23T08:59:39.045Z,13.80
2018-02-23T09:02:05.599Z,14.17
2018-02-23T09:04:31.815Z,16.43
2018-02-23T09:06:58.279Z,15.93
2018-02-23T09:09:24.424Z,17.30
2018-02-23T09:11:50.607Z,17.60
2018-02-23T09:14:16.739Z,13.27
2018-02-23T09:16:42.963Z,15.93
2018-02-23T09:19:09.161Z,15.73
2018-02-23T09:21:35.332Z,13.63
2018-02-23T09:24:01.630Z,13.83
2018-02-23T09:26:27.964Z,13.20
2018-02-23T09:28:54.122Z,12.77
2018-02-23T09:31:20.340Z,12.63
2018-02-23T09:33:59.033Z,8.57
2018-02-23T09:36:25.367Z,11.80
2018-02-23T09:38:51.531Z,11.67
2018-02-23T09:41:17.673Z,11.43
2018-02-23T09:43:43.898Z,12.57
2018-02-23T09:46:10.114Z,11.97
2018-02-23T09:48:36.308Z,13.67
2018-02-23T09:51:02.607Z,11.60
2018-02-23T09:53:28.764Z,12.10
2018-02-23T09:55:54.964Z,12.40
2018-02-23T09:58:21.171Z,11.00
2018-02-23T10:00:47.331Z,9.87
2018-02-23T10:03:13.472Z,13.37
2018-02-23T10:05:39.698Z,14.90
2018-02-23T10:08:06.137Z,15.60
2018-02-23T10:10:32.276Z,14.10
2018-02-23T10:12:58.519Z,15.97
2018-02-23T10:15:24.730Z,13.33
2018-02-23T10:17:50.949Z,16.10
2018-02-23T10:20:17.126Z,15.30
2018-02-23T10:22:43.316Z,15.10
2018-02-23T10:25:09.472Z,14.53
2018-02-23T10:27:35.711Z,16.07
2018-02-23T10:30:01.932Z,10.60
2018-02-23T10:32:28.058Z,17.07
2018-02-23T10:34:54.262Z,14.27
2018-02-23T10:37:20.420Z,14.63
2018-02-23T10:39:46.589Z,13.50
2018-02-23T10:42:12.773Z,14.73
2018-02-23T10:44:38.930Z,17.00
2018-02-23T10:47:05.102Z,15.33
2018-02-23T10:49:31.240Z,15.27
2018-02-23T10:51:57.396Z,13.87
2018-02-23T10:54:23.569Z,13.33
2018-02-23T10:56:49.816Z,11.07
2018-02-23T10:59:16.079Z,11.27
2018-02-23T11:01:42.305Z,13.07
2018-02-23T11:04:08.503Z,13.17
2018-02-23T11:06:34.724Z,13.67
2018-02-23T11:09:00.857Z,13.57
2018-02-23T11:11:27.039Z,11.77
2018-02-23T11:13:53.230Z,11.27
2018-02-23T11:16:19.436Z,14.07
2018-02-23T11:18:45.603Z,14.30
2018-02-23T11:21:11.771Z,13.73
2018-02-23T11:23:37.984Z,13.93
2018-02-23T11:26:04.456Z,12.97
2018-02-23T11:28:30.636Z,12.03
2018-02-23T11:30:56.820Z,12.93
2018-02-23T11:33:22.970Z,12.10
2018-02-23T11:35:49.160Z,13.63
2018-02-23T11:38:15.347Z,12.40
2018-02-23T11:40:41.568Z,13.57
2018-02-23T11:45:42.853Z,10.63
2018-02-23T11:48:09.991Z,13.20
2018-02-23T11:50:36.162Z,10.53
2018-02-23T11:53:02.360Z,13.67
2018-02-23T11:55:28.575Z,13.43
2018-02-23T11:58:00.811Z,13.67
2018-02-23T12:00:27.026Z,13.23
2018-02-23T12:02:53.182Z,14.93
2018-02-23T12:05:19.412Z,12.87
2018-02-23T12:07:45.615Z,13.07
2018-02-23T12:10:11.811Z,15.27
2018-02-23T12:12:38.016Z,13.70
2018-02-23T12:15:04.190Z,13.73
2018-02-23T12:17:30.414Z,13.90
2018-02-23T12:19:56.540Z,12.77
2018-02-23T12:22:22.691Z,12.37
2018-02-23T12:24:48.911Z,17.60
2018-02-23T12:27:15.147Z,12.27
2018-02-23T12:29:41.376Z,12.20
2018-02-23T12:32:07.515Z,8.90
2018-02-23T12:34:33.678Z,12.17
2018-02-23T12:36:59.928Z,13.17
2018-02-23T12:39:26.101Z,13.10
2018-02-23T12:41:52.357Z,8.90
2018-02-23T12:44:18.532Z,9.40
2018-02-23T12:46:44.650Z,10.30
2018-02-23T12:49:10.888Z,9.73
2018-02-23T12:51:37.074Z,7.73
2018-02-23T12:54:03.340Z,7.53
2018-02-23T12:56:29.504Z,9.30
2018-02-23T12:58:55.749Z,10.87
2018-02-23T13:01:21.892Z,9.30
2018-02-23T13:03:48.041Z,9.67
2018-02-23T13:06:14.264Z,10.17
2018-02-23T13:08:40.488Z,9.47
2018-02-23T13:11:06.688Z,10.27
2018-02-23T13:13:32.855Z,10.37
2018-02-23T13:15:59.000Z,11.07
2018-02-23T13:18:25.196Z,12.60
2018-02-23T13:20:51.332Z,12.67
2018-02-23T13:23:17.456Z,12.30
2018-02-23T13:25:43.560Z,11.60
2018-02-23T13:28:15.763Z,12.30
2018-02-23T13:30:41.890Z,11.97
2018-02-23T13:33:08.015Z,13.10
2018-02-23T13:35:34.185Z,13.37
2018-02-23T13:38:00.316Z,12.47
2018-02-23T13:40:30.440Z,10.27
2018-02-23T13:42:56.619Z,12.77
2018-02-23T13:45:22.756Z,12.43
2018-02-23T13:47:48.935Z,11.97
2018-02-23T13:50:15.026Z,13.33
2018-02-23T13:52:41.173Z,15.77
2018-02-23T13:55:07.359Z,12.77
2018-02-23T13:57:33.518Z,13.03
2018-02-23T13:59:59.668Z,12.07
2018-02-23T14:02:25.812Z,11.53
2018-02-23T14:04:51.898Z,12.73
2018-02-23T14:07:23.836Z,11.40
2018-02-23T14:09:50.024Z,13.10
2018-02-23T14:12:16.178Z,11.80
2018-02-23T14:14:42.335Z,12.40
2018-02-23T14:17:08.567Z,12.63
2018-02-23T14:19:34.794Z,11.80
2018-02-23T14:22:00.924Z,12.37
2018-02-23T14:24:27.061Z,14.00
2018-02-23T14:26:53.305Z,14.23
2018-02-23T14:29:19.436Z,15.20
2018-02-23T14:31:45.552Z,12.97
2018-02-23T14:34:11.689Z,11.63
2018-02-23T14:36:37.785Z,14.83
2018-02-23T14:39:04.795Z,11.30
2018-02-23T14:41:30.930Z,14.93
2018-02-23T14:43:57.043Z,14.27
2018-02-23T14:46:23.196Z,12.70
2018-02-23T14:49:01.570Z,15.20
2018-02-23T14:51:27.679Z,13.00
2018-02-23T14:53:53.806Z,13.30
2018-02-23T14:56:19.935Z,10.40
2018-02-23T14:58:46.087Z,11.17
2018-02-23T15:01:12.187Z,10.63
2018-02-23T15:03:38.331Z,10.47
2018-02-23T15:06:04.462Z,12.97
2018-02-23T15:08:30.666Z,10.20
2018-02-23T15:10:56.796Z,12.10
2018-02-23T15:13:23.070Z,12.93
2018-02-23T15:15:49.176Z,13.07
2018-02-23T15:18:15.360Z,12.20
2018-02-23T15:20:41.456Z,15.00
2018-02-23T15:23:07.577Z,13.37
2018-02-23T15:25:33.719Z,10.93
2018-02-23T15:27:59.867Z,12.40
2018-02-23T15:30:38.173Z,11.60
2018-02-23T15:33:04.285Z,13.07
2018-02-23T15:35:30.417Z,11.23
2018-02-23T15:37:57.315Z,12.73
2018-02-23T15:40:23.505Z,10.20
2018-02-23T15:42:49.606Z,10.10
2018-02-23T15:45:15.773Z,11.43
2018-02-23T15:47:42.016Z,17.97
2018-02-23T15:53:11.289Z,13.70
2018-02-23T15:55:37.477Z,12.37
2018-02-23T15:58:23.516Z,13.30
2018-02-23T16:00:49.781Z,10.73
2018-02-23T16:03:15.997Z,12.17
2018-02-23T16:05:49.102Z,10.90
2018-02-23T16:08:15.350Z,11.97
2018-02-23T16:10:41.506Z,12.30
2018-02-23T16:13:07.730Z,12.50
2018-02-23T16:15:33.903Z,10.20
2018-02-23T16:18:00.264Z,12.33
2018-02-23T16:20:26.408Z,11.57
2018-02-23T16:22:52.584Z,10.73
2018-02-23T16:25:18.767Z,10.17
2018-02-23T16:27:45.028Z,10.53
2018-02-23T16:30:11.202Z,10.53
2018-02-23T16:32:37.357Z,10.00
2018-02-23T16:35:03.545Z,10.40
2018-02-23T16:37:29.667Z,7.13
2018-02-23T16:39:55.865Z,14.03
2018-02-23T16:42:22.030Z,9.30
2018-02-23T16:44:48.232Z,10.57
2018-02-23T16:47:14.398Z,10.20
2018-02-23T16:49:40.560Z,11.03
2018-02-23T16:52:06.756Z,9.33
2018-02-23T16:54:32.884Z,9.47
2018-02-23T16:56:59.113Z,9.77
2018-02-23T16:59:25.307Z,9.97
2018-02-23T17:01:51.467Z,10.33
2018-02-23T17:04:17.636Z,10.03
2018-02-23T17:06:43.801Z,7.87
2018-02-23T17:09:10.034Z,10.07
2018-02-23T17:11:36.223Z,7.07
2018-02-23T17:14:02.417Z,9.67
2018-02-23T17:16:28.768Z,13.20
2018-02-23T17:18:54.954Z,8.40
2018-02-23T17:21:21.185Z,10.50
2018-02-23T17:23:47.385Z,9.10
2018-02-23T17:26:13.556Z,8.57
2018-02-23T17:28:39.731Z,9.53
2018-02-23T17:31:05.880Z,9.97
2018-02-23T17:33:32.044Z,8.70
2018-02-23T17:35:58.205Z,9.13
2018-02-23T17:38:24.509Z,8.30
2018-02-23T17:40:50.653Z,9.57
2018-02-23T17:43:16.817Z,8.50
2018-02-23T17:45:43.076Z,9.57
2018-02-23T17:48:09.315Z,10.27
2018-02-23T17:50:35.966Z,8.63
2018-02-23T17:53:02.148Z,11.87
2018-02-23T17:55:28.384Z,8.20
2018-02-23T17:57:54.608Z,8.97
2018-02-23T18:00:20.811Z,8.93
2018-02-23T18:02:46.964Z,9.87
2018-02-23T18:05:13.201Z,9.20
2018-02-23T18:07:39.348Z,10.30
2018-02-23T18:10:05.890Z,9.67
2018-02-23T18:12:32.181Z,9.27
2018-02-23T18:14:58.359Z,9.37
2018-02-23T18:17:24.602Z,11.50
2018-02-23T18:19:50.808Z,10.77
2018-02-23T18:22:16.904Z,11.17
2018-02-23T18:24:43.042Z,11.97
2018-02-23T18:27:09.223Z,9.90
2018-02-23T18:29:35.448Z,16.17
2018-02-23T18:32:01.566Z,11.33
2018-02-23T18:34:27.664Z,10.63
2018-02-23T18:36:53.844Z,11.50
2018-02-23T18:39:20.058Z,11.33
2018-02-23T18:41:46.189Z,12.27
2018-02-23T18:44:12.367Z,11.47
2018-02-23T18:46:38.472Z,11.67
2018-02-23T18:49:04.805Z,10.97
2018-02-23T18:51:30.919Z,12.07
2018-02-23T18:53:57.159Z,9.03
2018-02-23T18:56:23.377Z,10.83
2018-02-23T18:58:49.633Z,11.17
2018-02-23T19:01:15.904Z,12.30
2018-02-23T19:03:42.063Z,11.63
2018-02-23T19:06:08.282Z,15.10
2018-02-23T19:08:34.541Z,13.37
2018-02-23T19:11:00.784Z,12.67
2018-02-23T19:13:27.741Z,13.37
2018-02-23T19:15:54.768Z,11.13
2018-02-23T19:18:20.998Z,11.00
2018-02-23T19:20:47.242Z,11.10
2018-02-23T19:23:13.486Z,10.30
2018-02-23T19:25:39.764Z,10.67
2018-02-23T19:28:06.045Z,10.50
2018-02-23T19:30:32.292Z,11.47
2018-02-23T19:32:58.517Z,11.27
2018-02-23T19:35:24.819Z,11.87
2018-02-23T19:37:51.084Z,12.20
2018-02-23T19:40:17.344Z,11.13
2018-02-23T19:42:43.707Z,13.97
2018-02-23T19:45:10.244Z,10.07
2018-02-23T19:47:36.595Z,12.43
2018-02-23T19:50:03.172Z,10.23
2018-02-23T19:52:29.336Z,10.97
2018-02-23T19:54:55.460Z,9.70
2018-02-23T19:57:21.665Z,9.77
2018-02-23T19:59:47.956Z,10.80
2018-02-23T20:02:14.149Z,10.60
2018-02-23T20:04:40.416Z,9.97
2018-02-23T20:07:06.563Z,11.90
2018-02-23T20:09:32.841Z,11.30
2018-02-23T20:11:58.974Z,12.57
2018-02-23T20:14:25.219Z,10.33
2018-02-23T20:16:51.398Z,10.13
2018-02-23T20:19:17.668Z,13.43
2018-02-23T20:21:43.840Z,9.43
2018-02-23T20:24:10.172Z,11.03
2018-02-23T20:26:36.395Z,11.13
2018-02-23T20:29:02.656Z,10.97
2018-02-23T20:31:28.884Z,11.03
2018-02-23T20:33:55.051Z,11.87
2018-02-23T20:36:21.282Z,10.80
2018-02-23T20:38:47.520Z,10.93
2018-02-23T20:41:14.134Z,11.33
2018-02-23T20:43:40.742Z,11.80
2018-02-23T20:46:07.072Z,10.50
2018-02-23T20:48:33.347Z,11.23
2018-02-23T20:50:59.600Z,10.80
2018-02-23T20:53:25.923Z,10.73
2018-02-23T20:55:52.153Z,12.57
2018-02-23T20:58:18.391Z,11.93
2018-02-23T21:00:44.614Z,10.97
2018-02-23T21:03:10.861Z,9.87
2018-02-23T21:05:37.387Z,12.60
2018-02-23T21:08:03.589Z,10.97
2018-02-23T21:10:29.824Z,10.50
2018-02-23T21:12:56.004Z,12.07
2018-02-23T21:15:22.177Z,11.33
2018-02-23T21:17:48.530Z,9.27
2018-02-23T21:20:14.721Z,12.40
2018-02-23T21:22:40.879Z,12.57
2018-02-23T21:25:07.082Z,13.13
2018-02-23T21:27:33.312Z,11.20
2018-02-23T21:29:59.523Z,9.70
2018-02-23T21:32:25.675Z,13.37
2018-02-23T21:34:51.883Z,10.33
2018-02-23T21:37:18.104Z,10.40
2018-02-23T21:39:44.327Z,10.30
2018-02-23T21:42:10.519Z,9.70
2018-02-23T21:44:45.789Z,6.73
2018-02-23T21:47:11.960Z,10.93
2018-02-23T21:49:38.335Z,9.63
2018-02-23T21:52:04.571Z,11.00
2018-02-23T21:54:30.791Z,11.07
2018-02-23T21:56:57.114Z,11.03
2018-02-23T21:59:23.360Z,10.67
2018-02-23T22:01:49.622Z,9.37
2018-02-23T22:04:15.852Z,10.70
2018-02-23T22:06:42.011Z,10.57
2018-02-23T22:09:08.206Z,10.23
2018-02-23T22:11:34.449Z,9.80
2018-02-23T22:14:00.676Z,11.40
2018-02-23T22:16:26.853Z,9.87
2018-02-23T22:18:53.023Z,10.87
2018-02-23T22:21:19.245Z,11.90
2018-02-23T22:23:45.422Z,11.03
2018-02-23T22:26:11.580Z,10.80
2018-02-23T22:28:37.772Z,11.43
2018-02-23T22:31:04.018Z,10.23
2018-02-23T22:33:30.158Z,9.47
2018-02-23T22:35:56.417Z,10.10
2018-02-23T22:38:22.762Z,10.93
2018-02-23T22:40:49.102Z,10.53
2018-02-23T22:43:15.447Z,10.80
2018-02-23T22:45:41.698Z,11.33
2018-02-23T22:48:08.026Z,11.03
2018-02-23T22:50:34.297Z,12.57
2018-02-23T22:53:00.426Z,10.00
2018-02-23T22:55:26.563Z,10.37
2018-02-23T22:57:52.818Z,11.07
2018-02-23T23:00:19.050Z,11.30
2018-02-23T23:02:45.237Z,12.10
2018-02-23T23:05:11.459Z,10.27
2018-02-23T23:07:37.595Z,9.63
2018-02-23T23:10:03.818Z,9.87
2018-02-23T23:12:29.946Z,10.53
2018-02-23T23:14:56.118Z,12.23
2018-02-23T23:17:22.304Z,10.27
2018-02-23T23:19:48.543Z,8.00
2018-02-23T23:22:14.773Z,9.53
2018-02-23T23:24:40.953Z,10.43
2018-02-23T23:27:07.201Z,11.93
2018-02-23T23:29:33.447Z,10.80
2018-02-23T23:31:59.569Z,10.77
2018-02-23T23:34:25.716Z,10.60
2018-02-23T23:36:51.957Z,10.73
2018-02-23T23:39:18.245Z,9.97
2018-02-23T23:41:44.468Z,9.80
2018-02-23T23:44:10.697Z,9.77
2018-02-23T23:46:36.850Z,10.37
2018-02-23T23:49:02.983Z,10.77
2018-02-23T23:51:29.140Z,10.53
2018-02-23T23:53:55.367Z,10.57
2018-02-23T23:56:21.515Z,10.00
2018-02-23T23:58:47.738Z,10.30
